Time;durP1;ratioP1;P1;durP2;ratioP2;P2;SDS_P1;SDS_P2;PMS_P1;PMS_P2;Temp;Humidity;BMP_temperature;BMP_pressure;BME280_temperature;BME280_humidity;BME280_pressure;Samples;Min_cycle;Max_cycle;Signal;HPM_P1;HPM_P2
2024/01/12 00:01:12;;;;;;;46.67;28.77;;;;;;;5.65;58.32;103458.56;5008526;28;96967;-68
2024/01/12 00:03:38;;;;;;;44.72;28.05;;;;;;;5.69;58.27;103474.53;4998321;28;98771;-68
2024/01/12 00:06:06;;;;;;;45.63;28.50;;;;;;;5.69;58.31;103473.66;5011597;28;97607;-68
2024/01/12 00:08:32;;;;;;;45.20;29.70;;;;;;;5.67;58.26;103465.66;5013044;28;100558;-68
2024/01/12 00:10:59;;;;;;;46.55;29.42;;;;;;;5.67;58.41;103471.00;4997446;28;97250;-68
2024/01/12 00:13:26;;;;;;;45.10;27.98;;;;;;;5.66;58.20;103469.22;4999233;27;97437;-68
2024/01/12 00:15:53;;;;;;;44.30;27.48;;;;;;;5.67;58.26;103475.44;5007514;28;99760;-68
2024/01/12 00:18:19;;;;;;;45.33;28.08;;;;;;;5.66;58.29;103469.22;5000745;28;100044;-68
2024/01/12 00:20:46;;;;;;;42.83;27.25;;;;;;;5.67;58.38;103468.31;5002525;28;97335;-68
2024/01/12 00:23:13;;;;;;;44.30;27.95;;;;;;;5.68;58.24;103470.09;5000081;27;97102;-68
2024/01/12 00:25:40;;;;;;;45.17;27.55;;;;;;;5.68;58.36;103459.44;4994563;28;97409;-68
2024/01/12 00:28:08;;;;;;;46.60;29.02;;;;;;;5.71;58.41;103458.50;4986841;28;98438;-68
2024/01/12 00:30:39;;;;;;;40.97;27.00;;;;;;;5.73;58.31;103452.28;4998384;28;96997;-68
2024/01/12 00:33:06;;;;;;;43.95;28.80;;;;;;;5.75;58.27;103454.91;4995021;28;97136;-68
2024/01/12 00:35:33;;;;;;;40.08;26.42;;;;;;;5.75;58.22;103455.81;4992367;28;97386;-68
2024/01/12 00:37:59;;;;;;;45.58;28.20;;;;;;;5.76;58.21;103462.03;4988442;28;97707;-68
2024/01/12 00:40:26;;;;;;;42.13;28.40;;;;;;;5.75;58.30;103462.91;4994772;28;97096;-68
2024/01/12 00:42:53;;;;;;;37.40;25.38;;;;;;;5.75;58.21;103476.25;5004301;28;96815;-68
2024/01/12 00:45:20;;;;;;;43.45;28.42;;;;;;;5.74;58.14;103471.81;5010202;28;97675;-68
2024/01/12 00:47:46;;;;;;;46.45;28.80;;;;;;;5.73;58.22;103470.06;4995302;28;97834;-67
2024/01/12 00:50:13;;;;;;;44.55;28.45;;;;;;;5.71;58.24;103474.50;5000194;28;97136;-68
2024/01/12 00:52:40;;;;;;;44.45;27.85;;;;;;;5.71;58.22;103480.72;5001678;28;97612;-68
2024/01/12 00:55:07;;;;;;;45.65;27.95;;;;;;;5.69;58.31;103471.84;4987328;28;97518;-68
2024/01/12 00:57:34;;;;;;;41.47;27.50;;;;;;;5.68;58.16;103470.09;4993464;28;97712;-68
2024/01/12 01:00:00;;;;;;;39.78;27.27;;;;;;;5.71;58.29;103470.06;4993579;28;96888;-68
2024/01/12 01:02:27;;;;;;;47.67;28.05;;;;;;;5.72;58.40;103481.63;4986507;28;97594;-67
2024/01/12 01:04:55;;;;;;;40.78;27.50;;;;;;;5.71;58.29;103478.06;4993247;28;97528;-68
2024/01/12 01:07:22;;;;;;;45.90;28.02;;;;;;;5.71;58.32;103479.84;4996489;28;97648;-68
2024/01/12 01:09:49;;;;;;;40.58;26.75;;;;;;;5.72;58.33;103484.28;5005156;28;96993;-68
2024/01/12 01:12:16;;;;;;;40.42;27.08;;;;;;;5.73;58.38;103486.94;5001966;28;97526;-68
2024/01/12 01:14:43;;;;;;;45.67;27.70;;;;;;;5.74;58.47;103487.81;5004356;28;97523;-68
2024/01/12 01:17:10;;;;;;;43.85;27.05;;;;;;;5.74;58.28;103499.38;5013733;27;97878;-68
2024/01/12 01:19:38;;;;;;;43.45;28.02;;;;;;;5.75;58.45;103503.81;5000333;28;97272;-68
2024/01/12 01:22:05;;;;;;;47.90;28.27;;;;;;;5.76;58.36;103496.69;5010753;28;97161;-67
2024/01/12 01:24:32;;;;;;;43.60;26.67;;;;;;;5.77;58.50;103485.13;4991330;28;98276;-68
2024/01/12 01:26:58;;;;;;;47.50;28.00;;;;;;;5.79;58.29;103498.44;4990498;28;98195;-68
2024/01/12 01:29:25;;;;;;;42.45;26.88;;;;;;;5.82;58.44;103495.75;4993907;28;97059;-68
2024/01/12 01:31:52;;;;;;;42.22;26.75;;;;;;;5.83;58.48;103500.19;4991653;28;97363;-67
2024/01/12 01:34:19;;;;;;;44.25;26.55;;;;;;;5.83;58.38;103501.06;5001872;28;97715;-68
2024/01/12 01:36:46;;;;;;;37.95;25.00;;;;;;;5.83;58.42;103498.41;5002006;28;97549;-68
2024/01/12 01:39:14;;;;;;;42.30;26.20;;;;;;;5.83;58.27;103492.19;4991843;28;96874;-68
2024/01/12 01:41:40;;;;;;;41.80;25.75;;;;;;;5.83;58.39;103482.41;4994656;28;97664;-68
2024/01/12 01:44:07;;;;;;;42.67;26.73;;;;;;;5.84;58.36;103481.50;4986784;28;97891;-69
2024/01/12 01:46:35;;;;;;;41.80;25.23;;;;;;;5.84;58.28;103478.84;4987981;28;97517;-68
2024/01/12 01:49:01;;;;;;;37.22;25.02;;;;;;;5.83;58.40;103481.50;5004453;28;97282;-68
2024/01/12 01:51:28;;;;;;;42.25;25.17;;;;;;;5.79;58.19;103485.09;4985519;28;97493;-68
2024/01/12 01:53:55;;;;;;;41.65;25.48;;;;;;;5.77;58.36;103482.47;5003855;28;98397;-68
2024/01/12 01:56:22;;;;;;;40.45;25.15;;;;;;;5.79;58.23;103491.31;4999088;28;100222;-68
2024/01/12 01:58:49;;;;;;;41.05;24.77;;;;;;;5.81;58.66;103496.66;4989272;28;97069;-68
2024/01/12 02:01:17;;;;;;;37.65;23.98;;;;;;;5.82;58.19;103495.75;5006586;28;97027;-68
2024/01/12 02:03:45;;;;;;;44.00;25.95;;;;;;;5.82;58.47;103485.97;5008967;28;97468;-68
2024/01/12 02:06:12;;;;;;;37.83;23.95;;;;;;;5.84;58.55;103488.63;5015129;27;97563;-68
2024/01/12 02:08:39;;;;;;;39.53;23.40;;;;;;;5.84;58.22;103483.28;5016761;27;97203;-68
2024/01/12 02:11:06;;;;;;;42.53;25.17;;;;;;;5.84;58.36;103486.84;5011292;28;97275;-68
2024/01/12 02:13:33;;;;;;;44.88;25.50;;;;;;;5.85;58.37;103479.72;5011398;28;98135;-68
2024/01/12 02:16:00;;;;;;;38.20;22.77;;;;;;;5.85;58.43;103475.25;4999016;28;97669;-69
2024/01/12 02:18:27;;;;;;;37.85;23.00;;;;;;;5.85;58.30;103474.38;4998435;28;97986;-68
2024/01/12 02:20:57;;;;;;;37.67;22.33;;;;;;;5.84;58.41;103481.50;5009849;28;97385;-68
2024/01/12 02:23:24;;;;;;;38.15;23.00;;;;;;;5.80;58.29;103469.09;5018584;28;97724;-68
2024/01/12 02:25:51;;;;;;;35.03;22.38;;;;;;;5.80;58.25;103470.88;5010422;28;97597;-68
2024/01/12 02:28:18;;;;;;;37.33;22.75;;;;;;;5.77;58.33;103469.13;5007819;28;97362;-68
2024/01/12 02:30:46;;;;;;;37.03;23.25;;;;;;;5.79;58.39;103471.78;5007293;28;97183;-68
2024/01/12 02:33:13;;;;;;;37.55;22.02;;;;;;;5.81;58.44;103464.66;5003374;28;97523;-68
2024/01/12 02:35:39;;;;;;;34.45;21.83;;;;;;;5.85;58.42;103474.38;5004277;28;98190;-68
2024/01/12 02:38:06;;;;;;;30.77;21.02;;;;;;;5.88;58.27;103477.03;5008143;27;98165;-68
2024/01/12 02:40:33;;;;;;;35.38;21.70;;;;;;;5.88;58.19;103474.34;4987305;28;97520;-68
2024/01/12 02:43:01;;;;;;;37.60;23.58;;;;;;;5.88;58.36;103477.03;5009310;28;97570;-68
2024/01/12 02:45:27;;;;;;;34.38;21.83;;;;;;;5.88;58.46;103474.34;4989932;28;97612;-68
2024/01/12 02:47:54;;;;;;;37.05;22.38;;;;;;;5.86;58.28;103470.81;5003944;28;97064;-68
2024/01/12 02:50:22;;;;;;;39.63;22.50;;;;;;;5.83;58.44;103465.50;5004772;28;96917;-68
2024/01/12 02:52:49;;;;;;;31.23;20.95;;;;;;;5.81;58.47;103469.97;4998394;28;98051;-68
2024/01/12 02:55:15;;;;;;;37.97;21.77;;;;;;;5.80;58.43;103468.22;5000030;28;99088;-68
2024/01/12 02:57:42;;;;;;;36.20;21.58;;;;;;;5.80;58.78;103460.22;4998982;28;97036;-68
2024/01/12 03:00:10;;;;;;;37.25;21.83;;;;;;;5.82;58.46;103453.97;5009013;28;97256;-68
2024/01/12 03:02:37;;;;;;;35.83;22.60;;;;;;;5.85;58.54;103459.25;5000903;28;100565;-68
2024/01/12 03:05:04;;;;;;;39.50;21.15;;;;;;;5.86;58.42;103452.16;5008043;28;97989;-68
2024/01/12 03:07:31;;;;;;;41.58;21.75;;;;;;;5.86;58.63;103457.47;5003121;28;99002;-68
2024/01/12 03:09:58;;;;;;;37.45;21.65;;;;;;;5.87;58.49;103457.47;5012262;28;96994;-68
2024/01/12 03:12:25;;;;;;;38.17;20.92;;;;;;;5.86;58.61;103455.69;4997049;28;97425;-68
2024/01/12 03:14:52;;;;;;;38.90;21.42;;;;;;;5.87;58.45;103464.59;4993561;28;98546;-68
2024/01/12 03:17:19;;;;;;;39.88;21.73;;;;;;;5.87;58.72;103461.91;4997334;28;97569;-68
2024/01/12 03:19:46;;;;;;;35.25;21.73;;;;;;;5.86;58.53;103460.16;5000042;28;98639;-69
2024/01/12 03:22:13;;;;;;;38.60;21.27;;;;;;;5.89;58.53;103457.44;5002044;28;98200;-68
2024/01/12 03:24:39;;;;;;;36.53;20.83;;;;;;;5.90;58.50;103445.91;4996654;28;97655;-68
2024/01/12 03:27:06;;;;;;;34.88;20.73;;;;;;;5.88;58.54;103455.69;5002212;28;96788;-68
2024/01/12 03:29:33;;;;;;;34.13;20.23;;;;;;;5.88;58.49;103439.69;4990818;27;97230;-68
2024/01/12 03:32:00;;;;;;;38.72;21.42;;;;;;;5.90;58.47;103437.91;4993551;28;97544;-68
2024/01/12 03:34:27;;;;;;;31.73;20.25;;;;;;;5.93;58.59;103433.44;4998286;28;98095;-68
2024/01/12 03:36:54;;;;;;;36.90;21.20;;;;;;;5.94;58.65;103429.88;4999114;28;98384;-68
2024/01/12 03:39:20;;;;;;;36.90;21.48;;;;;;;5.97;58.56;103429.00;4996167;28;98154;-68
2024/01/12 03:41:47;;;;;;;36.60;20.25;;;;;;;5.97;58.42;103419.19;5004223;28;97536;-69
2024/01/12 03:44:14;;;;;;;37.47;19.92;;;;;;;5.98;58.55;103430.75;5000355;28;97560;-68
2024/01/12 03:46:40;;;;;;;36.20;20.40;;;;;;;5.98;58.50;103428.97;4995343;28;97037;-68
2024/01/12 03:49:07;;;;;;;31.73;17.33;;;;;;;5.98;58.31;103430.75;4995638;28;97353;-68
2024/01/12 03:51:34;;;;;;;34.15;19.88;;;;;;;5.97;58.53;103435.22;4996343;28;97537;-68
2024/01/12 03:54:01;;;;;;;29.42;17.48;;;;;;;5.96;58.61;103430.78;5013717;27;97672;-68
2024/01/12 03:56:28;;;;;;;36.13;18.17;;;;;;;5.95;58.58;103437.00;5004534;28;96977;-68
2024/01/12 03:58:54;;;;;;;31.05;18.30;;;;;;;5.95;58.76;103437.00;5013810;27;97077;-68
2024/01/12 04:01:22;;;;;;;31.65;18.00;;;;;;;5.96;58.70;103432.56;5013415;28;97509;-68
2024/01/12 04:03:49;;;;;;;37.50;18.30;;;;;;;5.96;58.78;103440.56;5007399;28;98849;-68
2024/01/12 04:06:16;;;;;;;34.28;18.73;;;;;;;5.98;58.67;103441.41;5003119;28;97381;-68
2024/01/12 04:08:43;;;;;;;31.35;17.33;;;;;;;6.00;58.79;103455.63;4982447;28;97035;-68
2024/01/12 04:11:20;;;;;;;32.30;17.33;;;;;;;6.02;58.89;103445.81;4985566;28;97653;-68
2024/01/12 04:13:46;;;;;;;30.88;16.67;;;;;;;6.05;58.79;103444.00;4997466;28;98326;-68
2024/01/12 04:16:13;;;;;;;30.00;13.63;;;;;;;6.05;58.74;103435.13;5011735;28;97267;-68
2024/01/12 04:18:40;;;;;;;24.23;14.25;;;;;;;6.06;58.72;103439.56;5012528;28;97140;-68
2024/01/12 04:21:07;;;;;;;32.55;14.63;;;;;;;6.07;58.77;103432.44;5008731;28;100839;-68
2024/01/12 04:23:34;;;;;;;24.83;15.13;;;;;;;6.09;58.72;103433.31;5004044;27;97797;-68
2024/01/12 04:26:01;;;;;;;35.08;15.82;;;;;;;6.12;58.68;103436.81;4995813;28;96917;-68
2024/01/12 04:28:28;;;;;;;29.45;15.73;;;;;;;6.13;58.69;103435.91;5000417;28;97260;-68
2024/01/12 04:30:54;;;;;;;31.10;17.20;;;;;;;6.16;58.68;103441.22;4994410;28;98209;-68
2024/01/12 04:33:21;;;;;;;31.25;17.00;;;;;;;6.20;58.58;103437.63;4995214;28;97549;-68
2024/01/12 04:35:48;;;;;;;35.67;16.23;;;;;;;6.19;58.71;103441.19;5012374;27;97261;-68
2024/01/12 04:38:15;;;;;;;30.33;16.73;;;;;;;6.18;58.58;103436.75;5003943;28;97060;-69
2024/01/12 04:40:42;;;;;;;29.85;14.60;;;;;;;6.16;58.48;103435.88;5002426;28;98115;-69
2024/01/12 04:43:09;;;;;;;25.85;13.82;;;;;;;6.15;58.63;103426.13;5007983;28;98209;-68
2024/01/12 04:45:36;;;;;;;29.20;15.30;;;;;;;6.16;58.56;103422.53;4995832;28;96973;-69
2024/01/12 04:48:02;;;;;;;34.70;15.18;;;;;;;6.15;58.47;103418.09;4988058;28;97335;-69
2024/01/12 04:50:29;;;;;;;29.55;14.93;;;;;;;6.16;58.45;103422.53;4992120;28;97812;-68
2024/01/12 04:52:56;;;;;;;30.27;15.65;;;;;;;6.13;58.48;103408.34;5013225;28;98155;-68
2024/01/12 04:55:23;;;;;;;30.45;15.27;;;;;;;6.11;58.40;103404.81;5007274;28;97423;-68
2024/01/12 04:57:49;;;;;;;26.20;13.63;;;;;;;6.12;58.37;103411.94;5020934;27;97062;-69
2024/01/12 05:00:16;;;;;;;27.27;14.40;;;;;;;6.12;58.35;103406.59;5017114;28;97454;-69
2024/01/12 05:02:43;;;;;;;22.17;12.93;;;;;;;6.11;58.50;103413.72;5013549;28;97818;-68
2024/01/12 05:05:10;;;;;;;31.85;14.32;;;;;;;6.11;58.52;103400.38;5018815;28;97337;-68
2024/01/12 05:07:39;;;;;;;26.13;13.80;;;;;;;6.11;58.41;103396.81;5008166;28;96840;-69
2024/01/12 05:10:06;;;;;;;28.23;14.60;;;;;;;6.12;58.56;103402.13;5012246;28;97982;-69
2024/01/12 05:12:34;;;;;;;22.00;14.07;;;;;;;6.13;58.60;103397.69;5006012;28;99914;-68
2024/01/12 05:15:02;;;;;;;24.70;13.27;;;;;;;6.13;58.51;103400.34;5010522;28;97490;-69
2024/01/12 05:17:28;;;;;;;26.63;13.48;;;;;;;6.12;58.42;103412.81;5012264;28;97146;-69
2024/01/12 05:19:56;;;;;;;29.55;13.35;;;;;;;6.14;58.72;103426.13;5003472;28;98585;-69
2024/01/12 05:22:23;;;;;;;26.70;13.57;;;;;;;6.15;58.58;103420.78;5013747;27;97908;-69
2024/01/12 05:24:50;;;;;;;22.25;13.93;;;;;;;6.18;58.61;103423.41;5009197;28;97395;-69
2024/01/12 05:27:16;;;;;;;27.10;13.52;;;;;;;6.21;58.65;103425.16;5007868;28;97293;-69
2024/01/12 05:29:44;;;;;;;32.97;16.48;;;;;;;6.22;58.57;103425.13;5016026;28;97601;-69
2024/01/12 05:32:10;;;;;;;31.25;15.40;;;;;;;6.23;58.57;103426.03;5001303;28;97369;-69
2024/01/12 05:34:38;;;;;;;27.48;15.43;;;;;;;6.25;58.64;103430.44;5011318;27;96834;-69
2024/01/12 05:37:05;;;;;;;27.23;15.05;;;;;;;6.25;58.64;103419.75;5007665;27;97711;-69
2024/01/12 05:39:32;;;;;;;25.35;14.80;;;;;;;6.26;58.58;103424.19;5006198;28;97466;-69
2024/01/12 05:41:59;;;;;;;26.85;15.93;;;;;;;6.28;58.71;103414.38;5012171;28;98032;-68
2024/01/12 05:44:25;;;;;;;27.98;14.77;;;;;;;6.31;58.54;103418.81;5018961;28;96982;-69
2024/01/12 05:46:52;;;;;;;27.48;13.98;;;;;;;6.31;58.48;103408.13;4984693;28;97335;-69
2024/01/12 05:49:19;;;;;;;28.42;14.82;;;;;;;6.32;58.49;103415.22;4995283;28;97414;-69
2024/01/12 05:51:47;;;;;;;24.60;13.70;;;;;;;6.31;58.73;103409.00;5000780;28;97590;-69
2024/01/12 05:54:14;;;;;;;26.13;15.10;;;;;;;6.30;58.55;103407.25;5015416;28;97358;-69
2024/01/12 05:56:40;;;;;;;25.95;14.20;;;;;;;6.29;58.48;103404.59;5000744;28;99521;-69
2024/01/12 05:59:07;;;;;;;27.83;14.38;;;;;;;6.28;58.51;103413.50;4997552;28;97596;-69
2024/01/12 06:01:33;;;;;;;26.20;13.98;;;;;;;6.29;58.60;103415.28;5003849;28;97717;-69
2024/01/12 06:04:00;;;;;;;27.88;14.48;;;;;;;6.30;58.57;103407.25;4992982;28;97213;-69
2024/01/12 06:06:27;;;;;;;26.27;13.45;;;;;;;6.33;58.54;103417.00;5001021;28;97328;-69
2024/01/12 06:08:54;;;;;;;27.63;14.18;;;;;;;6.34;58.45;103413.44;5000719;28;98087;-69
2024/01/12 06:11:21;;;;;;;30.63;13.85;;;;;;;6.32;58.68;103423.25;5006151;28;97403;-69
2024/01/12 06:13:48;;;;;;;24.95;12.95;;;;;;;6.32;58.45;103421.47;4998236;28;97502;-69
2024/01/12 06:16:14;;;;;;;28.20;13.25;;;;;;;6.34;58.38;103424.09;4999513;28;97411;-69
2024/01/12 06:18:41;;;;;;;23.52;13.82;;;;;;;6.34;58.52;103427.66;5001884;28;97676;-69
2024/01/12 06:21:08;;;;;;;22.63;13.75;;;;;;;6.35;58.33;103428.53;5002972;28;97727;-69
2024/01/12 06:23:35;;;;;;;23.42;13.05;;;;;;;6.33;58.46;103431.22;4995956;28;96948;-69
2024/01/12 06:26:01;;;;;;;24.17;12.73;;;;;;;6.30;58.48;103436.59;5001778;28;97598;-69
2024/01/12 06:28:28;;;;;;;25.83;13.10;;;;;;;6.30;58.38;103433.06;4996603;28;97923;-69
2024/01/12 06:30:55;;;;;;;26.27;13.05;;;;;;;6.28;58.49;103430.41;4994262;28;97445;-69
2024/01/12 06:33:22;;;;;;;25.13;12.77;;;;;;;6.28;58.57;103434.84;4994557;28;98220;-69
2024/01/12 06:35:49;;;;;;;26.55;13.02;;;;;;;6.29;58.42;103431.28;5016110;27;97076;-69
2024/01/12 06:38:15;;;;;;;26.08;13.60;;;;;;;6.28;58.57;103429.53;4997478;28;100161;-69
2024/01/12 06:40:42;;;;;;;24.63;12.70;;;;;;;6.28;58.49;103430.41;4994634;28;97482;-69
2024/01/12 06:43:09;;;;;;;22.05;12.38;;;;;;;6.30;58.48;103430.38;4991273;28;97093;-69
2024/01/12 06:45:36;;;;;;;23.27;12.02;;;;;;;6.29;58.54;103421.50;4987994;28;97937;-69
2024/01/12 06:48:02;;;;;;;28.30;12.15;;;;;;;6.28;58.48;103418.84;4998726;28;97694;-69
2024/01/12 06:50:29;;;;;;;26.77;11.95;;;;;;;6.30;58.73;103417.03;4992311;28;100324;-69
2024/01/12 06:52:56;;;;;;;29.23;12.40;;;;;;;6.32;58.79;103409.91;5001827;28;97170;-69
2024/01/12 06:55:23;;;;;;;25.55;12.30;;;;;;;6.34;58.52;103416.09;5000325;28;97235;-69
2024/01/12 06:57:50;;;;;;;22.35;12.05;;;;;;;6.36;58.61;103422.31;5002817;28;97868;-69
2024/01/12 07:00:17;;;;;;;21.17;12.85;;;;;;;6.34;58.63;103416.97;4999440;28;97885;-69
2024/01/12 07:02:44;;;;;;;24.33;12.75;;;;;;;6.35;58.70;103407.19;4997839;28;97007;-69
2024/01/12 07:05:10;;;;;;;25.65;13.23;;;;;;;6.34;58.43;103408.97;4998464;28;97356;-69
2024/01/12 07:07:41;;;;;;;26.35;14.52;;;;;;;6.32;58.57;103400.09;4993553;28;98161;-69
2024/01/12 07:10:09;;;;;;;22.83;12.98;;;;;;;6.32;58.70;103408.13;4987894;28;97513;-69
2024/01/12 07:12:36;;;;;;;26.00;12.45;;;;;;;6.32;58.63;103417.91;4998318;28;97186;-69
2024/01/12 07:15:03;;;;;;;25.17;15.40;;;;;;;6.30;58.59;103417.03;4992763;28;97446;-69
2024/01/12 07:17:30;;;;;;;26.77;14.60;;;;;;;6.30;58.89;103419.72;5003042;28;98105;-69
2024/01/12 07:19:56;;;;;;;29.17;14.88;;;;;;;6.30;58.61;103423.25;5004029;28;97596;-69
2024/01/12 07:22:23;;;;;;;31.73;15.05;;;;;;;6.29;58.70;103421.50;5004934;28;97230;-68
2024/01/12 07:24:50;;;;;;;25.98;14.38;;;;;;;6.28;58.60;103414.38;5002610;28;97073;-69
2024/01/12 07:27:16;;;;;;;28.98;15.90;;;;;;;6.30;58.79;103409.03;5010936;28;97434;-69
2024/01/12 07:29:43;;;;;;;29.88;14.77;;;;;;;6.31;58.65;103406.34;4999278;28;98360;-69
2024/01/12 07:32:10;;;;;;;28.63;15.27;;;;;;;6.32;58.69;103409.91;5002966;28;97488;-69
2024/01/12 07:34:37;;;;;;;29.27;15.00;;;;;;;6.31;58.78;103403.69;5005242;27;96881;-69
2024/01/12 07:37:04;;;;;;;30.90;14.98;;;;;;;6.34;58.68;103410.75;4998458;28;97860;-69
2024/01/12 07:39:32;;;;;;;22.40;13.75;;;;;;;6.35;58.76;103412.53;4995504;28;97944;-69
2024/01/12 07:41:59;;;;;;;22.30;13.18;;;;;;;6.35;58.55;103409.84;5003857;28;97778;-69
2024/01/12 07:44:26;;;;;;;24.00;13.63;;;;;;;6.35;58.68;103416.09;5000591;28;96953;-69
2024/01/12 07:46:52;;;;;;;18.52;11.93;;;;;;;6.35;58.64;103413.41;5001435;28;97921;-69
2024/01/12 07:49:19;;;;;;;26.27;14.18;;;;;;;6.37;58.62;103422.28;5000706;28;97476;-69
2024/01/12 07:51:46;;;;;;;25.88;14.52;;;;;;;6.41;58.69;103425.78;5013523;28;97196;-69
2024/01/12 07:54:13;;;;;;;24.15;13.15;;;;;;;6.42;58.75;103413.34;5004700;28;97401;-69
2024/01/12 07:56:40;;;;;;;26.15;13.52;;;;;;;6.44;58.73;103414.19;4996674;28;98177;-69
2024/01/12 07:59:06;;;;;;;23.05;13.60;;;;;;;6.44;58.68;103416.88;5001769;28;97950;-69
2024/01/12 08:01:33;;;;;;;23.45;13.00;;;;;;;6.43;58.35;103413.31;5005335;28;97364;-69
2024/01/12 08:04:00;;;;;;;23.58;12.68;;;;;;;6.44;58.50;103424.88;5003884;28;97343;-69
2024/01/12 08:06:27;;;;;;;23.92;13.77;;;;;;;6.43;58.51;103423.09;5004843;28;97640;-69
2024/01/12 08:08:54;;;;;;;25.98;12.27;;;;;;;6.42;58.39;103422.22;4998843;28;100017;-69
2024/01/12 08:11:20;;;;;;;24.08;12.43;;;;;;;6.43;58.61;103423.09;4990547;28;96805;-70
2024/01/12 08:14:01;;;;;;;26.10;12.80;;;;;;;6.46;58.66;103433.75;4995608;28;97213;-69
2024/01/12 08:16:27;;;;;;;25.05;12.88;;;;;;;6.45;58.56;103423.97;4997381;28;98604;-69
2024/01/12 08:18:54;;;;;;;22.58;12.98;;;;;;;6.46;58.59;103433.75;5011724;28;97620;-69
2024/01/12 08:21:21;;;;;;;16.00;11.35;;;;;;;6.48;58.64;103435.50;5013661;28;97022;-69
2024/01/12 08:23:48;;;;;;;21.00;11.43;;;;;;;6.48;58.48;103415.94;5011690;28;97145;-69
2024/01/12 08:26:14;;;;;;;21.10;11.35;;;;;;;6.49;58.56;103423.91;5012179;28;97404;-69
2024/01/12 08:28:41;;;;;;;23.40;11.98;;;;;;;6.50;58.80;103419.47;4998289;28;99674;-69
2024/01/12 08:31:08;;;;;;;23.38;11.38;;;;;;;6.49;58.62;103418.56;5017372;28;97382;-69
2024/01/12 08:33:37;;;;;;;20.77;11.73;;;;;;;6.51;58.47;103421.22;5015702;28;97196;-69
2024/01/12 08:36:04;;;;;;;23.58;11.18;;;;;;;6.52;58.86;103417.66;5000955;28;97543;-69
2024/01/12 08:38:31;;;;;;;20.33;11.93;;;;;;;6.54;58.75;103418.50;5015512;27;97559;-69
2024/01/12 08:40:58;;;;;;;18.88;11.25;;;;;;;6.56;58.80;103424.72;5016340;27;97494;-69
2024/01/12 08:43:25;;;;;;;24.00;12.13;;;;;;;6.56;58.58;103417.59;5009029;28;97156;-69
2024/01/12 08:45:53;;;;;;;20.60;12.63;;;;;;;6.58;58.64;103423.78;5000626;28;97698;-69
2024/01/12 08:48:20;;;;;;;24.00;10.77;;;;;;;6.60;58.75;103415.75;5013616;28;99867;-69
2024/01/12 08:50:47;;;;;;;40.53;15.00;;;;;;;6.60;58.85;103421.09;4999630;28;96928;-69
2024/01/12 08:53:14;;;;;;;35.05;14.40;;;;;;;6.61;58.73;103418.41;4988437;28;96886;-71
2024/01/12 08:55:40;;;;;;;23.50;13.15;;;;;;;6.61;58.84;103417.53;5000174;28;97588;-69
2024/01/12 08:58:07;;;;;;;18.13;11.10;;;;;;;6.60;58.75;103415.75;5006945;28;97585;-69
2024/01/12 09:00:33;;;;;;;21.40;13.35;;;;;;;6.60;58.87;103410.41;5009188;27;97088;-69
2024/01/12 09:03:00;;;;;;;25.65;14.57;;;;;;;6.61;58.79;103413.06;5003240;28;96884;-69
2024/01/12 09:05:27;;;;;;;24.83;13.65;;;;;;;6.62;58.96;103414.84;5012164;28;100262;-70
2024/01/12 09:07:54;;;;;;;26.20;12.90;;;;;;;6.64;58.96;103415.69;4997887;28;97351;-69
2024/01/12 09:10:21;;;;;;;22.73;11.93;;;;;;;6.65;58.64;103420.13;5006049;28;96969;-69
2024/01/12 09:12:48;;;;;;;23.85;10.98;;;;;;;6.66;58.68;103427.25;5004315;28;97127;-69
2024/01/12 09:15:15;;;;;;;19.23;10.60;;;;;;;6.67;59.19;103428.13;5007789;28;98121;-69
2024/01/12 09:17:41;;;;;;;19.55;9.90;;;;;;;6.68;59.00;103420.09;4996031;28;98970;-69
2024/01/12 09:20:09;;;;;;;21.67;10.25;;;;;;;6.69;59.08;103427.22;4992990;28;97726;-69
2024/01/12 09:22:35;;;;;;;18.75;9.40;;;;;;;6.71;59.03;103423.66;4997641;28;97082;-70
2024/01/12 09:25:02;;;;;;;18.80;9.73;;;;;;;6.74;58.99;103428.94;4990195;28;99215;-69
2024/01/12 09:27:30;;;;;;;18.27;9.50;;;;;;;6.75;59.04;103425.38;5003557;28;97478;-69
2024/01/12 09:29:56;;;;;;;19.48;10.40;;;;;;;6.79;58.84;103422.66;4998977;28;97567;-69
2024/01/12 09:32:23;;;;;;;19.73;9.23;;;;;;;6.83;59.15;103416.34;4992663;28;97008;-69
2024/01/12 09:34:50;;;;;;;21.63;8.30;;;;;;;6.87;59.00;103410.06;4984683;28;97680;-69
2024/01/12 09:37:17;;;;;;;21.63;8.57;;;;;;;6.90;58.82;103404.66;5007651;27;98083;-69
2024/01/12 09:39:43;;;;;;;16.95;8.55;;;;;;;6.94;58.75;103408.19;4986467;28;97124;-69
2024/01/12 09:42:14;;;;;;;17.63;8.80;;;;;;;6.95;58.98;103404.59;4989723;28;96984;-69
2024/01/12 09:44:45;;;;;;;22.08;9.38;;;;;;;6.97;59.11;103401.00;4990135;28;97518;-69
2024/01/12 09:47:25;;;;;;;19.38;8.82;;;;;;;6.99;58.83;103417.00;4988485;28;100044;-69
2024/01/12 09:49:53;;;;;;;19.10;9.13;;;;;;;7.00;58.76;103416.09;4999377;28;97256;-69
2024/01/12 09:52:20;;;;;;;19.60;8.18;;;;;;;7.00;58.85;103416.97;4999244;28;97344;-70
2024/01/12 09:54:46;;;;;;;19.30;8.88;;;;;;;6.99;58.86;103409.88;5013966;28;97527;-69
2024/01/12 09:57:14;;;;;;;19.60;7.88;;;;;;;6.99;58.79;103417.88;5002508;28;98131;-70
2024/01/12 09:59:42;;;;;;;16.33;7.63;;;;;;;6.98;58.79;103421.47;5013708;28;98494;-69
2024/01/12 10:02:15;;;;;;;16.90;8.27;;;;;;;6.98;58.88;103424.13;5014981;27;96909;-69
2024/01/12 10:04:42;;;;;;;14.02;7.22;;;;;;;7.00;58.92;103424.13;5012055;28;98390;-70
2024/01/12 10:07:09;;;;;;;23.48;8.18;;;;;;;7.03;59.07;103417.84;5010677;28;97481;-69
2024/01/12 10:09:35;;;;;;;13.85;7.63;;;;;;;7.03;59.05;103421.41;5012500;28;97200;-69
2024/01/12 10:12:02;;;;;;;16.40;6.90;;;;;;;7.03;58.90;103418.72;5013911;27;96972;-69
2024/01/12 10:14:29;;;;;;;17.30;7.07;;;;;;;7.05;58.78;103416.91;5005046;28;100547;-69
2024/01/12 10:16:56;;;;;;;15.05;6.68;;;;;;;7.06;58.94;103413.34;5011582;28;97644;-69
2024/01/12 10:19:24;;;;;;;15.75;7.30;;;;;;;7.09;58.83;103417.75;4997000;28;97085;-69
2024/01/12 10:21:51;;;;;;;15.48;6.95;;;;;;;7.11;58.91;103413.25;5000813;28;97111;-70
2024/01/12 10:24:20;;;;;;;17.23;6.80;;;;;;;7.14;59.04;103429.25;4997991;27;98285;-69
2024/01/12 10:26:48;;;;;;;15.60;6.95;;;;;;;7.19;58.99;103422.91;5003638;28;97654;-69
2024/01/12 10:29:15;;;;;;;13.23;6.72;;;;;;;7.23;59.01;103429.09;5003463;28;97840;-70
2024/01/12 10:31:43;;;;;;;9.60;6.07;;;;;;;7.27;58.91;103415.66;4991697;28;97201;-69
2024/01/12 10:34:12;;;;;;;16.50;7.20;;;;;;;7.30;58.83;103401.38;5001545;28;97545;-69
2024/01/12 10:36:42;;;;;;;18.00;6.85;;;;;;;7.31;58.73;103405.81;5002129;28;98245;-69
2024/01/12 10:39:12;;;;;;;17.40;7.00;;;;;;;7.34;58.69;103403.06;4994741;28;97306;-69
2024/01/12 10:41:40;;;;;;;15.27;7.18;;;;;;;7.36;58.81;103403.06;5007681;27;97091;-69
2024/01/12 10:44:08;;;;;;;19.10;7.07;;;;;;;7.34;58.57;103390.59;4991317;28;98498;-69
2024/01/12 10:46:51;;;;;;;13.32;7.78;;;;;;;7.34;58.72;103395.94;4988067;28;98531;-69
2024/01/12 10:49:25;;;;;;;19.05;8.05;;;;;;;7.36;58.73;103392.34;5000917;28;97206;-69
2024/01/12 10:52:00;;;;;;;13.03;7.17;;;;;;;7.34;58.76;103384.38;5020647;28;97098;-70
2024/01/12 10:54:43;;;;;;;20.55;8.35;;;;;;;7.35;58.60;103391.47;5015296;28;97386;-69
2024/01/12 10:57:12;;;;;;;15.80;8.23;;;;;;;7.36;58.78;103387.91;5003392;28;98341;-69
2024/01/12 10:59:44;;;;;;;15.38;7.93;;;;;;;7.37;58.77;103388.78;5004884;27;96881;-69
2024/01/12 11:02:13;;;;;;;18.45;8.23;;;;;;;7.38;58.79;103395.88;5022544;27;97107;-69
2024/01/12 11:04:41;;;;;;;14.40;8.32;;;;;;;7.38;58.72;103391.41;5007616;28;99095;-69
2024/01/12 11:07:09;;;;;;;16.50;9.23;;;;;;;7.41;58.88;103394.03;5011905;27;97381;-69
2024/01/12 11:09:37;;;;;;;17.95;8.07;;;;;;;7.44;58.98;103396.69;4992993;28;97165;-69
2024/01/12 11:12:15;;;;;;;15.30;8.15;;;;;;;7.46;58.94;103394.88;4998054;28;96815;-69
2024/01/12 11:14:42;;;;;;;17.65;7.85;;;;;;;7.49;58.74;103394.81;4996385;28;97403;-69
2024/01/12 11:17:12;;;;;;;15.48;8.23;;;;;;;7.51;58.78;103390.34;5006474;28;97570;-73
2024/01/12 11:19:38;;;;;;;17.65;8.32;;;;;;;7.52;58.67;103389.41;4995692;28;99009;-70